Time;durP1;ratioP1;P1;durP2;ratioP2;P2;SDS_P1;SDS_P2;PMS_P1;PMS_P2;Temp;Humidity;BMP_temperature;BMP_pressure;BME280_temperature;BME280_humidity;BME280_pressure;Samples;Min_cycle;Max_cycle;Signal;HPM_P1;HPM_P2
2022/04/20 00:01:01;;;;;;;8.27;4.15;;;;;;;10.63;47.22;101454.69;5013620;28;20091;-54
2022/04/20 00:03:26;;;;;;;9.65;4.20;;;;;;;10.62;47.22;101458.31;5020621;28;20030;-53
2022/04/20 00:05:52;;;;;;;9.52;4.05;;;;;;;10.59;47.46;101461.25;5009724;28;20030;-54
2022/04/20 00:08:17;;;;;;;7.90;4.32;;;;;;;10.50;47.77;101459.47;5016679;28;20091;-54
2022/04/20 00:10:42;;;;;;;7.43;4.03;;;;;;;10.50;47.82;101462.13;5012375;28;20041;-54
2022/04/20 00:13:08;;;;;;;5.18;3.95;;;;;;;10.41;48.73;101466.44;5011993;28;20033;-54
2022/04/20 00:15:33;;;;;;;7.15;4.18;;;;;;;10.41;47.51;101463.78;5022009;28;20033;-55
2022/04/20 00:17:58;;;;;;;8.20;4.22;;;;;;;10.39;48.66;101462.28;5022907;28;20508;-55
2022/04/20 00:20:23;;;;;;;6.32;4.30;;;;;;;10.35;48.28;101461.72;5012630;28;20046;-55
2022/04/20 00:22:49;;;;;;;6.53;4.00;;;;;;;10.34;47.64;101465.38;5015809;28;20045;-53
2022/04/20 00:25:14;;;;;;;6.22;4.07;;;;;;;10.30;48.80;101470.13;5011876;28;20391;-54
2022/04/20 00:27:39;;;;;;;6.47;4.10;;;;;;;10.27;48.43;101465.09;5008043;28;20476;-55
2022/04/20 00:30:06;;;;;;;6.32;4.38;;;;;;;10.27;48.07;101473.03;5015306;28;20026;-53
2022/04/20 00:32:32;;;;;;;6.53;4.40;;;;;;;10.27;48.10;101470.38;5013005;28;20030;-55
2022/04/20 00:34:57;;;;;;;8.75;4.32;;;;;;;10.19;48.26;101472.94;5014461;28;20099;-55
2022/04/20 00:37:23;;;;;;;6.55;4.28;;;;;;;10.17;48.99;101474.91;5018643;28;20350;-54
2022/04/20 00:39:49;;;;;;;5.47;4.20;;;;;;;10.18;48.61;101474.78;5019890;28;20033;-56
2022/04/20 00:42:14;;;;;;;6.97;4.40;;;;;;;10.10;48.63;101469.31;5010347;28;20133;-55
2022/04/20 00:44:40;;;;;;;7.85;4.30;;;;;;;10.07;49.09;101478.41;5010547;28;20028;-55
2022/04/20 00:47:06;;;;;;;6.15;3.95;;;;;;;10.07;49.16;101470.44;5014189;28;20461;-55
2022/04/20 00:49:34;;;;;;;7.15;4.35;;;;;;;10.05;49.14;101472.41;5009347;28;20393;-55
2022/04/20 00:52:01;;;;;;;7.50;4.70;;;;;;;9.96;49.12;101483.84;5014350;28;20044;-54
2022/04/20 00:54:26;;;;;;;6.38;4.50;;;;;;;9.88;49.99;101476.63;5012609;28;20034;-54
2022/04/20 00:56:51;;;;;;;6.95;4.75;;;;;;;9.92;49.73;101487.78;5012411;28;20045;-55
2022/04/20 00:59:20;;;;;;;6.68;4.57;;;;;;;9.92;49.43;101485.13;5013233;28;20042;-55
2022/04/20 01:01:46;;;;;;;8.95;4.57;;;;;;;9.77;50.44;101480.25;5011086;28;20649;-53
2022/04/20 01:04:11;;;;;;;6.57;4.50;;;;;;;9.82;50.03;101480.66;5010560;28;20109;-55
2022/04/20 01:06:37;;;;;;;8.50;4.43;;;;;;;9.83;50.22;101479.69;5015189;28;20054;-51
2022/04/20 01:09:02;;;;;;;8.95;4.72;;;;;;;9.72;50.21;101477.19;5011684;28;20041;-54
2022/04/20 01:11:28;;;;;;;5.35;4.32;;;;;;;9.69;50.65;101477.47;5012085;28;20468;-55
2022/04/20 01:13:53;;;;;;;5.25;4.28;;;;;;;9.70;50.49;101476.50;5004577;28;20451;-55
2022/04/20 01:16:19;;;;;;;6.22;4.60;;;;;;;9.65;50.39;101481.38;5010246;28;20029;-55
2022/04/20 01:18:44;;;;;;;6.03;4.63;;;;;;;9.64;51.02;101477.06;5011821;28;20046;-53
2022/04/20 01:21:12;;;;;;;5.13;4.40;;;;;;;9.59;50.12;101480.13;5018179;28;20033;-53
2022/04/20 01:23:38;;;;;;;8.32;4.88;;;;;;;9.54;50.07;101480.53;5012560;28;20053;-54
2022/04/20 01:26:09;;;;;;;7.68;4.70;;;;;;;9.54;50.33;101480.53;5018180;28;20139;-51
2022/04/20 01:28:41;;;;;;;6.32;4.60;;;;;;;9.49;50.72;101482.78;5022395;28;20409;-55
2022/04/20 01:31:07;;;;;;;7.05;4.90;;;;;;;9.47;50.91;101483.88;5010246;28;20026;-54
2022/04/20 01:33:33;;;;;;;7.85;4.72;;;;;;;9.46;51.16;101479.53;5004125;28;20396;-54
2022/04/20 01:35:58;;;;;;;5.63;4.72;;;;;;;9.36;51.51;101488.31;5008823;28;20056;-55
2022/04/20 01:38:24;;;;;;;7.88;4.90;;;;;;;9.31;50.85;101484.44;5007578;28;20117;-53
2022/04/20 01:40:49;;;;;;;6.72;5.00;;;;;;;9.21;51.02;101479.94;5026212;28;20049;-54
2022/04/20 01:43:14;;;;;;;7.90;5.03;;;;;;;9.26;51.08;101485.66;5012788;28;20053;-52
2022/04/20 01:45:39;;;;;;;8.38;4.65;;;;;;;9.20;51.52;101480.91;5017509;28;20029;-55
2022/04/20 01:48:06;;;;;;;8.00;5.28;;;;;;;9.05;51.52;101485.75;5010750;28;20030;-54
2022/04/20 01:50:31;;;;;;;10.05;5.10;;;;;;;9.11;51.73;101481.72;5011204;28;20087;-52
2022/04/20 01:52:57;;;;;;;9.07;4.80;;;;;;;9.06;51.85;101486.59;5012745;28;20108;-53
2022/04/20 01:55:22;;;;;;;6.72;5.00;;;;;;;8.95;51.39;101484.88;5010175;28;20032;-54
2022/04/20 01:57:47;;;;;;;9.85;5.13;;;;;;;8.95;51.66;101484.88;5015660;28;20488;-54
2022/04/20 02:00:16;;;;;;;7.85;5.30;;;;;;;8.98;51.99;101485.44;5011102;28;20660;-55
2022/04/20 02:02:42;;;;;;;8.25;4.93;;;;;;;8.94;51.67;101477.94;5008812;28;20109;-53
2022/04/20 02:05:09;;;;;;;6.78;5.15;;;;;;;8.91;52.23;101489.63;5011470;28;20687;-56
2022/04/20 02:07:35;;;;;;;9.40;5.30;;;;;;;8.85;52.30;101479.56;5014402;28;20077;-53
2022/04/20 02:10:03;;;;;;;12.25;5.22;;;;;;;8.85;51.95;101482.22;5013217;28;20118;-56
2022/04/20 02:12:28;;;;;;;8.73;5.30;;;;;;;8.80;52.43;101481.78;5008307;28;20392;-54
2022/04/20 02:14:54;;;;;;;7.72;4.80;;;;;;;8.79;52.27;101486.22;5014673;28;20041;-51
2022/04/20 02:17:19;;;;;;;7.25;5.22;;;;;;;8.74;52.08;101483.97;5036730;28;20030;-54
2022/04/20 02:19:44;;;;;;;6.45;5.18;;;;;;;8.70;52.29;101479.94;5016726;28;20069;-55
2022/04/20 02:22:10;;;;;;;11.35;5.78;;;;;;;8.71;52.22;101478.97;5015356;28;20045;-54
2022/04/20 02:24:35;;;;;;;9.68;5.47;;;;;;;8.61;52.20;101478.94;5013184;28;20034;-52
2022/04/20 02:27:00;;;;;;;8.70;5.28;;;;;;;8.50;52.61;101475.50;5012296;28;20041;-52
2022/04/20 02:29:26;;;;;;;8.93;5.63;;;;;;;8.52;53.21;101471.78;5017267;28;20033;-54
2022/04/20 02:31:51;;;;;;;8.48;5.03;;;;;;;8.49;53.09;101479.97;5016149;28;20049;-54
2022/04/20 02:34:16;;;;;;;9.30;5.40;;;;;;;8.48;52.98;101468.53;5025216;28;20036;-55
2022/04/20 02:36:42;;;;;;;10.50;5.50;;;;;;;8.44;53.04;101469.78;5012998;28;20200;-55
2022/04/20 02:39:07;;;;;;;8.35;5.28;;;;;;;8.47;52.94;101466.03;5021756;28;20037;-55
2022/04/20 02:41:36;;;;;;;9.15;5.45;;;;;;;8.34;53.29;101472.38;5008431;28;20460;-51
2022/04/20 02:44:03;;;;;;;8.65;5.38;;;;;;;8.33;53.33;101477.78;5013406;28;20572;-53
2022/04/20 02:46:28;;;;;;;7.45;5.50;;;;;;;8.37;53.19;101481.84;5024267;28;20108;-55
2022/04/20 02:48:53;;;;;;;8.40;5.50;;;;;;;8.29;53.56;101484.31;5016106;28;20416;-55
2022/04/20 02:51:19;;;;;;;10.10;5.55;;;;;;;8.27;53.46;101491.50;5012202;28;20425;-55
2022/04/20 02:53:44;;;;;;;9.40;5.50;;;;;;;8.18;53.31;101490.47;5015109;28;20034;-55
2022/04/20 02:56:09;;;;;;;7.32;5.35;;;;;;;8.19;53.32;101490.38;5023952;28;20026;-51
2022/04/20 02:58:34;;;;;;;7.03;5.43;;;;;;;8.19;53.29;101490.38;5015761;28;20044;-54
2022/04/20 03:01:00;;;;;;;10.65;5.85;;;;;;;8.18;53.54;101499.25;5011566;28;20033;-55
2022/04/20 03:03:25;;;;;;;8.85;5.60;;;;;;;8.09;52.77;101489.44;5013973;28;20096;-53
2022/04/20 03:05:51;;;;;;;8.27;5.40;;;;;;;8.07;53.18;101491.41;5016101;28;20057;-55
2022/04/20 03:08:17;;;;;;;9.98;5.57;;;;;;;8.00;53.57;101495.53;5023990;28;20045;-55
2022/04/20 03:10:43;;;;;;;8.65;5.70;;;;;;;8.03;53.73;101500.53;5015091;28;20033;-54
2022/04/20 03:13:08;;;;;;;9.35;5.63;;;;;;;8.02;53.01;101499.72;5014620;28;20025;-54
2022/04/20 03:15:33;;;;;;;9.77;5.68;;;;;;;7.98;53.59;101492.19;5015521;28;20030;-54
2022/04/20 03:17:59;;;;;;;8.77;5.32;;;;;;;7.93;53.82;101501.31;5014759;28;20040;-56
2022/04/20 03:20:24;;;;;;;9.82;5.85;;;;;;;7.91;53.67;101497.94;5012776;28;20045;-55
2022/04/20 03:22:50;;;;;;;8.23;5.70;;;;;;;7.88;54.22;101502.66;5017202;28;20460;-54
2022/04/20 03:25:15;;;;;;;7.85;5.70;;;;;;;7.79;53.90;101498.97;5020451;28;20030;-55
2022/04/20 03:27:40;;;;;;;9.50;5.80;;;;;;;7.80;54.09;101503.31;5013798;28;20063;-54
2022/04/20 03:30:06;;;;;;;10.32;5.55;;;;;;;7.79;54.10;101498.97;5012493;28;20033;-52
2022/04/20 03:32:32;;;;;;;9.35;5.60;;;;;;;7.70;54.37;101507.66;5016806;28;20070;-54
2022/04/20 03:34:57;;;;;;;8.82;5.80;;;;;;;7.71;54.68;101512.81;5012520;28;20504;-55
2022/04/20 03:37:22;;;;;;;9.43;5.57;;;;;;;7.71;54.60;101509.34;5011815;28;20030;-55
2022/04/20 03:39:48;;;;;;;8.30;5.55;;;;;;;7.71;54.58;101514.63;5010140;28;20108;-53
2022/04/20 03:42:14;;;;;;;9.52;5.55;;;;;;;7.59;54.60;101513.84;5012002;28;20049;-54
2022/04/20 03:44:40;;;;;;;8.50;5.78;;;;;;;7.64;54.65;101506.34;5012356;28;20485;-54
2022/04/20 03:47:06;;;;;;;9.00;6.00;;;;;;;7.62;54.38;101514.41;5010129;28;20033;-54
2022/04/20 03:49:31;;;;;;;7.95;5.55;;;;;;;7.64;54.41;101512.47;4999342;28;20146;-52
2022/04/20 03:51:57;;;;;;;8.43;5.65;;;;;;;7.62;53.86;101518.84;5009925;28;20449;-54
2022/04/20 03:54:23;;;;;;;7.72;5.57;;;;;;;7.63;54.63;101513.44;5008879;28;20421;-53
2022/04/20 03:57:03;;;;;;;10.85;5.65;;;;;;;7.61;54.14;101512.72;5013047;28;20503;-53
2022/04/20 03:59:32;;;;;;;8.27;5.50;;;;;;;7.54;54.12;101517.66;5012877;28;20133;-52
2022/04/20 04:01:58;;;;;;;8.43;5.80;;;;;;;7.54;54.60;101516.81;5003769;28;20033;-54
2022/04/20 04:04:24;;;;;;;7.60;5.40;;;;;;;7.54;54.16;101516.81;4994012;28;20532;-55
2022/04/20 04:06:49;;;;;;;8.90;5.05;;;;;;;7.53;54.43;101521.28;5012313;28;20113;-54
2022/04/20 04:09:15;;;;;;;11.57;5.88;;;;;;;7.48;54.96;101514.69;5013160;28;20042;-54
2022/04/20 04:11:41;;;;;;;9.13;5.32;;;;;;;7.50;54.29;101531.25;5013247;28;20022;-52
2022/04/20 04:14:07;;;;;;;8.38;5.70;;;;;;;7.43;54.67;101519.50;5012448;28;20103;-54
2022/04/20 04:16:39;;;;;;;11.07;5.40;;;;;;;7.39;54.72;101524.19;5015404;28;20523;-52
2022/04/20 04:19:05;;;;;;;8.00;5.43;;;;;;;7.38;55.10;101528.63;5016701;28;20049;-52
2022/04/20 04:21:38;;;;;;;9.38;5.57;;;;;;;7.37;55.08;101526.09;5012576;28;20037;-55
2022/04/20 04:24:04;;;;;;;9.45;5.63;;;;;;;7.35;54.68;101531.50;5012355;28;20049;-54
2022/04/20 04:26:30;;;;;;;9.90;5.90;;;;;;;7.35;54.76;101533.31;5011777;28;20080;-53
2022/04/20 04:28:55;;;;;;;8.25;5.50;;;;;;;7.37;55.23;101537.50;5012659;28;20029;-52
2022/04/20 04:31:21;;;;;;;8.88;5.45;;;;;;;7.35;54.92;101536.78;5013963;28;20485;-50
2022/04/20 04:33:46;;;;;;;9.43;5.53;;;;;;;7.39;55.01;101537.38;5017820;28;20034;-54
2022/04/20 04:36:11;;;;;;;9.95;5.90;;;;;;;7.35;55.30;101542.06;5011332;28;20406;-53
2022/04/20 04:38:37;;;;;;;12.93;6.20;;;;;;;7.31;54.82;101543.28;5010078;28;20026;-53
2022/04/20 04:41:02;;;;;;;10.63;6.18;;;;;;;7.31;55.24;101545.06;5011407;28;20044;-53
2022/04/20 04:43:27;;;;;;;11.30;6.00;;;;;;;7.29;54.78;101555.75;5011118;28;20103;-55
2022/04/20 04:48:37;;;;;;;11.23;5.80;;;;;;;7.30;55.69;101557.41;5011153;28;20037;-52
2022/04/20 04:51:03;;;;;;;12.35;6.00;;;;;;;7.26;54.69;101561.28;5027340;28;20026;-54
2022/04/20 04:53:29;;;;;;;10.52;6.10;;;;;;;7.21;55.38;101563.44;5013390;28;20141;-56
2022/04/20 04:55:55;;;;;;;14.50;5.80;;;;;;;7.23;55.41;101572.06;5000917;28;20040;-53
2022/04/20 04:58:21;;;;;;;8.88;6.10;;;;;;;7.22;55.12;101565.97;5003314;28;20469;-54
2022/04/20 05:00:46;;;;;;;8.70;6.28;;;;;;;7.23;56.25;101572.91;5007482;28;20092;-56
2022/04/20 05:03:14;;;;;;;7.90;6.05;;;;;;;7.24;55.86;101573.72;5006275;28;20026;-53
2022/04/20 05:05:41;;;;;;;16.25;6.78;;;;;;;7.18;55.52;101568.94;5007537;28;20018;-53
2022/04/20 05:08:07;;;;;;;10.07;6.10;;;;;;;7.21;56.02;101568.72;5010689;28;20041;-54
2022/04/20 05:10:33;;;;;;;8.23;5.82;;;;;;;7.16;54.90;101566.44;5021601;28;20057;-52
2022/04/20 05:13:00;;;;;;;9.05;6.28;;;;;;;7.18;55.53;101569.78;5011610;28;20065;-58
2022/04/20 05:15:26;;;;;;;11.23;6.13;;;;;;;7.24;56.09;101563.19;5012203;28;20034;-55
2022/04/20 05:17:51;;;;;;;8.05;6.10;;;;;;;7.22;56.00;101571.25;5011218;28;20037;-53
2022/04/20 05:20:19;;;;;;;10.48;6.07;;;;;;;7.25;56.18;101570.13;5005409;28;20456;-55
2022/04/20 05:22:44;;;;;;;9.90;6.05;;;;;;;7.17;55.64;101564.63;5007858;28;20117;-54
2022/04/20 05:25:10;;;;;;;8.85;6.20;;;;;;;7.25;55.47;101573.63;5004371;28;20109;-52
2022/04/20 05:27:35;;;;;;;11.52;6.28;;;;;;;7.26;56.10;101561.28;5008716;28;20033;-54
2022/04/20 05:30:01;;;;;;;8.52;6.25;;;;;;;7.28;55.96;101575.19;5008723;28;20045;-55
2022/04/20 05:32:26;;;;;;;11.02;6.55;;;;;;;7.29;56.26;101576.84;5009355;28;20089;-54
2022/04/20 05:34:54;;;;;;;11.50;6.50;;;;;;;7.26;56.17;101577.09;5020113;28;20073;-53
2022/04/20 05:42:48;;;;;;;10.10;6.22;;;;;;;7.40;55.43;101586.53;5012553;28;20152;-55
2022/04/20 05:45:14;;;;;;;13.75;6.65;;;;;;;7.40;55.62;101584.75;5005865;28;20117;-54
2022/04/20 05:47:39;;;;;;;12.95;6.80;;;;;;;7.44;56.05;101589.81;5004175;28;20025;-56
2022/04/20 05:50:05;;;;;;;10.30;6.45;;;;;;;7.47;55.36;101584.25;5006012;28;20048;-54
2022/04/20 05:52:32;;;;;;;10.60;6.15;;;;;;;7.52;55.42;101582.94;5008962;28;20479;-55
2022/04/20 05:54:58;;;;;;;10.18;6.18;;;;;;;7.58;55.54;101583.41;5013512;28;20631;-55
2022/04/20 05:57:24;;;;;;;9.55;6.13;;;;;;;7.65;55.33;101585.41;5003399;28;20038;-53
2022/04/20 05:59:49;;;;;;;11.90;6.68;;;;;;;7.70;55.19;101584.22;5004518;28;20026;-54
2022/04/20 06:02:15;;;;;;;13.73;6.13;;;;;;;7.73;55.62;101578.69;5011140;28;20040;-55
2022/04/20 06:04:40;;;;;;;9.50;5.90;;;;;;;7.80;55.35;101579.88;5007640;28;20037;-55
2022/04/20 06:07:06;;;;;;;10.77;6.43;;;;;;;7.86;54.65;101578.53;5010039;28;20077;-54
2022/04/20 06:09:31;;;;;;;10.13;6.43;;;;;;;7.92;55.29;101578.88;5004430;28;20049;-54
2022/04/20 06:11:58;;;;;;;11.18;6.50;;;;;;;7.95;55.31;101572.50;5007482;28;20069;-54
2022/04/20 06:14:24;;;;;;;11.25;6.40;;;;;;;8.04;54.86;101587.59;5015826;28;20037;-53
2022/04/20 06:16:49;;;;;;;13.13;6.40;;;;;;;8.10;55.09;101580.97;5016916;28;20099;-54
2022/04/20 06:19:15;;;;;;;12.70;6.50;;;;;;;8.16;54.97;101591.03;5017320;28;20076;-56
2022/04/20 06:21:40;;;;;;;12.52;6.40;;;;;;;8.17;54.66;101576.00;5008250;28;20084;-52
2022/04/20 06:24:05;;;;;;;10.50;6.70;;;;;;;8.28;54.35;101588.31;5008505;28;20026;-55
2022/04/20 06:26:30;;;;;;;12.32;6.82;;;;;;;8.30;54.18;101594.31;5007286;28;20030;-55
2022/04/20 06:28:56;;;;;;;9.88;6.28;;;;;;;8.35;54.75;101589.50;5007698;28;20061;-54
2022/04/20 06:31:21;;;;;;;12.27;6.85;;;;;;;8.45;54.54;101587.72;5012202;28;20479;-54
2022/04/20 06:33:46;;;;;;;10.65;6.53;;;;;;;8.51;54.27;101580.25;5019298;28;20037;-54
2022/04/20 06:36:11;;;;;;;12.57;6.53;;;;;;;8.58;53.63;101597.31;5017840;28;20038;-53
2022/04/20 06:38:37;;;;;;;11.05;6.75;;;;;;;8.63;53.48;101581.91;5013795;28;20079;-54
2022/04/20 06:41:03;;;;;;;10.43;6.57;;;;;;;8.71;54.54;101591.81;5010797;28;20042;-54
2022/04/20 06:43:29;;;;;;;10.45;6.53;;;;;;;8.81;54.63;101597.16;5010096;28;20037;-54
2022/04/20 06:45:54;;;;;;;10.90;6.30;;;;;;;8.92;53.45;101591.81;5014872;28;20030;-53
2022/04/20 06:48:20;;;;;;;11.02;6.50;;;;;;;8.97;52.43;101600.19;5009598;28;20038;-54
2022/04/20 06:50:45;;;;;;;10.57;6.35;;;;;;;9.02;52.33;101603.28;5008424;28;20030;-53
2022/04/20 06:58:41;;;;;;;12.07;6.47;;;;;;;9.23;53.31;101593.59;5006166;28;20127;-54
2022/04/20 07:01:07;;;;;;;13.35;6.75;;;;;;;9.28;52.51;101596.69;5011359;28;20029;-55
2022/04/20 07:03:36;;;;;;;10.45;6.13;;;;;;;9.37;53.25;101595.06;5020506;28;20147;-55
2022/04/20 07:06:02;;;;;;;10.57;6.18;;;;;;;9.44;51.55;101601.47;5021667;28;20029;-56
2022/04/20 07:08:28;;;;;;;11.27;6.70;;;;;;;9.53;51.89;101603.28;5024363;28;20048;-55
2022/04/20 07:10:54;;;;;;;9.90;6.63;;;;;;;9.63;52.97;101594.56;5008727;28;20034;-54
2022/04/20 07:13:19;;;;;;;10.25;6.15;;;;;;;9.71;52.61;101604.47;5012761;28;21506;-54
2022/04/20 07:15:45;;;;;;;9.23;5.90;;;;;;;9.77;52.58;101596.78;5000984;28;20026;-56
2022/04/20 07:18:10;;;;;;;9.43;5.90;;;;;;;9.87;51.65;101598.63;5010395;28;20830;-59
2022/04/20 07:20:35;;;;;;;13.43;5.80;;;;;;;9.94;51.44;101602.38;5009039;28;20058;-58
2022/04/20 07:23:01;;;;;;;15.32;6.15;;;;;;;10.03;51.85;101601.56;5020666;28;20034;-58
2022/04/20 07:25:26;;;;;;;10.55;6.10;;;;;;;10.11;51.30;101592.09;5016108;28;20029;-57
2022/04/20 07:27:52;;;;;;;13.13;6.10;;;;;;;10.19;50.96;101589.56;5015660;28;20060;-57
2022/04/20 07:30:18;;;;;;;12.57;6.32;;;;;;;10.26;51.07;101595.16;5014744;28;20030;-57
2022/04/20 07:32:43;;;;;;;9.18;5.90;;;;;;;10.33;50.71;101597.09;5017754;28;20114;-57
2022/04/20 07:35:09;;;;;;;11.65;5.90;;;;;;;10.48;49.72;101594.88;5013386;28;20033;-57
2022/04/20 07:37:34;;;;;;;9.93;5.78;;;;;;;10.55;50.16;101597.78;5013132;28;20033;-58
2022/04/20 07:39:59;;;;;;;14.52;5.88;;;;;;;10.63;49.19;101608.53;5014040;28;20062;-57
2022/04/20 07:42:25;;;;;;;11.15;5.85;;;;;;;10.70;48.74;101602.66;5014462;28;20042;-56
2022/04/20 07:44:54;;;;;;;11.52;5.70;;;;;;;10.77;48.63;101598.44;5014325;28;20052;-57
2022/04/20 07:47:22;;;;;;;10.82;5.75;;;;;;;10.84;48.27;101599.53;5014450;28;20014;-57
2022/04/20 07:52:36;;;;;;;11.30;5.40;;;;;;;11.00;47.27;101611.34;5006384;28;20480;-55
2022/04/20 07:55:02;;;;;;;12.13;5.55;;;;;;;11.08;47.68;101616.75;5011553;28;20080;-53
2022/04/20 07:57:27;;;;;;;7.30;5.50;;;;;;;11.11;46.92;101616.47;5027215;28;20072;-54
2022/04/20 07:59:52;;;;;;;7.68;5.25;;;;;;;11.17;47.00;101613.22;5012399;28;20038;-54
2022/04/20 08:02:20;;;;;;;10.10;5.18;;;;;;;11.25;46.96;101614.31;5009246;28;20037;-56
2022/04/20 08:04:45;;;;;;;9.15;5.57;;;;;;;11.31;46.66;101616.41;5013446;28;20034;-55
2022/04/20 08:07:11;;;;;;;14.73;5.53;;;;;;;11.37;46.55;101605.19;5010439;28;20108;-54
2022/04/20 08:09:36;;;;;;;10.05;5.30;;;;;;;11.41;47.62;101609.19;5009228;28;20044;-55
2022/04/20 08:12:01;;;;;;;9.02;5.13;;;;;;;11.49;46.69;101613.78;5013634;28;20428;-54
2022/04/20 08:14:28;;;;;;;9.80;5.22;;;;;;;11.61;45.18;101614.41;5007928;28;20066;-57
2022/04/20 08:16:53;;;;;;;7.25;5.38;;;;;;;11.67;45.39;101621.78;5025463;28;20030;-55
2022/04/20 08:19:19;;;;;;;7.43;5.20;;;;;;;11.77;45.69;101620.88;5009127;28;20452;-53
2022/04/20 08:21:46;;;;;;;9.27;5.38;;;;;;;11.83;45.23;101620.28;5009407;28;20026;-55
2022/04/20 08:24:11;;;;;;;12.32;5.47;;;;;;;11.93;44.27;101607.75;5013279;28;20061;-54
2022/04/20 08:26:36;;;;;;;9.52;5.45;;;;;;;11.96;44.43;101615.44;5010425;28;20557;-54
2022/04/20 08:29:03;;;;;;;7.90;5.53;;;;;;;12.01;43.51;101627.41;5011907;28;20033;-54
2022/04/20 08:31:28;;;;;;;8.30;5.22;;;;;;;12.06;44.52;101615.41;5014371;28;20485;-55
2022/04/20 08:33:53;;;;;;;10.77;5.70;;;;;;;12.16;44.96;101620.63;5012722;28;20040;-56
2022/04/20 08:36:19;;;;;;;11.30;5.85;;;;;;;12.25;43.21;101618.88;5013383;28;20648;-54
2022/04/20 08:38:44;;;;;;;9.73;5.65;;;;;;;12.24;42.37;101623.34;5019701;28;20090;-54
2022/04/20 08:41:15;;;;;;;9.02;5.50;;;;;;;12.23;43.10;101616.38;5011379;28;20082;-54
2022/04/20 08:43:41;;;;;;;11.13;5.88;;;;;;;12.36;43.95;101621.28;5014443;28;20041;-52
2022/04/20 08:46:10;;;;;;;16.48;5.50;;;;;;;12.40;42.93;101619.16;5005681;28;20087;-54
2022/04/20 08:48:35;;;;;;;11.88;5.50;;;;;;;12.48;42.08;101613.06;5012325;28;20443;-55
2022/04/20 08:51:04;;;;;;;11.32;5.60;;;;;;;12.44;42.84;101607.19;5020197;28;20069;-56
2022/04/20 08:53:29;;;;;;;8.52;5.90;;;;;;;12.55;42.42;101610.59;5018323;28;20072;-55
2022/04/20 08:57:15;;;;;;;11.25;5.60;;;;;;;12.64;41.75;101613.16;5024575;28;20660;-55
2022/04/20 08:58:49;;;;;;;9.05;5.70;;;;;;;12.68;42.69;101604.88;5011087;28;20033;-55
2022/04/20 09:01:16;;;;;;;13.45;5.80;;;;;;;12.81;41.76;101602.63;5007116;28;20025;-53
2022/04/20 09:03:50;;;;;;;9.38;5.80;;;;;;;12.89;42.01;101599.19;5007291;28;20037;-55
2022/04/20 09:06:16;;;;;;;9.25;5.35;;;;;;;13.01;41.02;101600.59;5005706;28;20503;-55
2022/04/20 09:08:42;;;;;;;8.75;5.70;;;;;;;13.10;40.51;101606.78;5011032;28;20037;-53
2022/04/20 09:11:07;;;;;;;12.32;5.55;;;;;;;13.16;40.88;101602.63;5011746;28;20737;-55
2022/04/20 09:13:35;;;;;;;8.90;5.53;;;;;;;13.16;41.14;101586.66;5016679;28;20029;-55
2022/04/20 09:16:08;;;;;;;8.65;5.40;;;;;;;13.34;41.02;101601.72;5012083;28;20116;-55
2022/04/20 09:18:35;;;;;;;9.88;5.50;;;;;;;13.38;40.01;101597.72;5003583;28;20054;-56
2022/04/20 09:21:20;;;;;;;10.27;5.60;;;;;;;13.45;41.21;101604.06;5010887;28;20046;-57
2022/04/20 09:23:45;;;;;;;9.77;5.63;;;;;;;13.45;40.95;101596.94;5023964;28;20467;-54
2022/04/20 09:26:19;;;;;;;11.90;5.65;;;;;;;13.51;40.11;101595.47;5023384;28;20105;-55
2022/04/20 09:29:04;;;;;;;9.07;5.10;;;;;;;13.68;40.03;101595.50;5009276;28;20087;-54
2022/04/20 09:31:45;;;;;;;9.93;5.10;;;;;;;13.55;39.67;101596.81;5004768;28;20037;-55
2022/04/20 09:34:29;;;;;;;8.45;5.13;;;;;;;13.61;40.42;101594.50;5009174;28;20084;-55
2022/04/20 09:36:55;;;;;;;8.13;5.13;;;;;;;13.64;39.83;101581.69;5012367;28;20025;-55
2022/04/20 09:39:21;;;;;;;8.15;5.28;;;;;;;13.74;40.53;101581.53;5002554;28;20184;-54
2022/04/20 09:42:02;;;;;;;6.72;4.75;;;;;;;13.81;40.05;101571.88;5013899;28;20029;-54
2022/04/20 09:44:29;;;;;;;10.23;5.10;;;;;;;13.89;39.92;101580.88;5014700;28;20026;-54
2022/04/20 09:49:58;;;;;;;8.25;5.18;;;;;;;14.01;39.66;101571.53;5009651;28;20108;-55
2022/04/20 09:52:34;;;;;;;10.48;5.55;;;;;;;14.06;40.12;101582.53;5001983;28;20041;-54
2022/04/20 09:55:00;;;;;;;7.57;5.25;;;;;;;14.06;39.63;101579.88;5004035;28;20046;-55
2022/04/20 09:57:25;;;;;;;9.77;4.85;;;;;;;14.10;39.65;101575.88;5014182;28;20614;-55
2022/04/20 10:00:01;;;;;;;7.72;4.80;;;;;;;14.14;39.41;101573.72;5014254;28;20033;-54
2022/04/20 10:02:30;;;;;;;7.00;4.55;;;;;;;14.28;39.46;101577.56;5004989;28;20033;-54
2022/04/20 10:04:57;;;;;;;10.50;4.75;;;;;;;14.33;38.94;101567.22;5014887;28;21214;-54
2022/04/20 10:07:22;;;;;;;7.13;4.60;;;;;;;14.42;38.86;101568.03;5007609;28;20357;-54
2022/04/20 10:09:48;;;;;;;4.72;4.20;;;;;;;14.49;37.29;101568.19;5011927;28;20042;-54
2022/04/20 10:12:18;;;;;;;5.47;4.03;;;;;;;14.49;37.42;101560.16;5020248;28;20156;-53
2022/04/20 10:17:39;;;;;;;8.02;4.25;;;;;;;14.66;37.69;101569.81;5002049;28;20088;-58
2022/04/20 10:20:06;;;;;;;8.77;4.25;;;;;;;14.66;36.40;101558.31;5000744;28;20054;-58
2022/04/20 10:22:31;;;;;;;8.98;4.28;;;;;;;14.73;36.68;101553.94;4998154;28;20033;-58
2022/04/20 10:24:59;;;;;;;10.00;3.97;;;;;;;14.74;37.44;101544.09;5006761;28;20043;-58
2022/04/20 10:27:43;;;;;;;5.38;3.83;;;;;;;14.86;36.62;101547.25;5011308;28;20043;-58
2022/04/20 10:30:18;;;;;;;9.18;3.83;;;;;;;14.91;37.26;101548.41;5011767;28;20377;-58
2022/04/20 10:32:59;;;;;;;5.47;3.90;;;;;;;14.93;36.78;101543.72;5004159;28;20041;-54
2022/04/20 10:35:25;;;;;;;5.38;3.83;;;;;;;15.01;37.79;101550.84;5002276;28;20030;-56
2022/04/20 10:38:07;;;;;;;5.75;3.88;;;;;;;15.11;37.14;101549.81;5020081;28;20076;-56
2022/04/20 10:40:33;;;;;;;5.87;4.07;;;;;;;15.13;36.44;101542.47;5019270;28;20025;-56
2022/04/20 10:43:21;;;;;;;8.57;3.72;;;;;;;15.21;36.71;101545.13;5004226;28;20032;-55
2022/04/20 10:46:04;;;;;;;4.40;3.75;;;;;;;15.15;36.65;101541.28;5000661;28;21030;-56
2022/04/20 10:48:43;;;;;;;;;;;;;;;15.29;36.30;101538.91;5001192;28;20077;-55
2022/04/20 10:51:18;;;;;;;5.10;4.00;;;;;;;15.19;35.76;101531.94;5002590;28;19917;-56
2022/04/20 10:53:46;;;;;;;6.07;3.80;;;;;;;15.10;35.79;101540.97;5003907;28;20040;-56
2022/04/20 10:56:12;;;;;;;6.50;4.13;;;;;;;15.19;36.59;101528.41;5007174;28;20026;-55
2022/04/20 10:58:38;;;;;;;5.68;4.10;;;;;;;15.33;36.00;101527.69;5003685;28;20091;-56
2022/04/20 11:01:11;;;;;;;8.05;4.10;;;;;;;15.46;36.14;101521.72;5004687;28;20034;-50
2022/04/20 11:03:58;;;;;;;7.97;4.47;;;;;;;15.58;36.65;101524.00;5004927;28;20056;-56
2022/04/20 11:06:46;;;;;;;8.10;4.60;;;;;;;15.50;36.34;101521.38;5005078;28;20034;-55
2022/04/20 11:09:40;;;;;;;5.80;3.92;;;;;;;15.54;37.25;101520.03;5004002;28;20034;-56
2022/04/20 11:21:04;;;;;;;8.75;4.00;;;;;;;15.83;37.81;101499.72;5011579;28;20503;-55
2022/04/20 11:23:55;;;;;;;8.00;4.20;;;;;;;15.77;36.71;101505.81;5005904;28;20030;-56
2022/04/20 11:26:33;;;;;;;7.38;4.28;;;;;;;15.67;36.90;101492.69;5004909;28;20026;-57
2022/04/20 11:29:08;;;;;;;7.70;4.20;;;;;;;15.80;36.77;101500.09;5004307;28;20030;-56
2022/04/20 11:31:38;;;;;;;8.43;4.00;;;;;;;15.84;37.09;101496.06;5013126;28;20172;-56
2022/04/20 11:34:04;;;;;;;7.95;3.67;;;;;;;16.00;35.29;101509.31;5004072;28;20483;-52
2022/04/20 11:36:29;;;;;;;6.30;3.70;;;;;;;16.03;35.40;101504.63;5008485;28;20025;-56
2022/04/20 11:38:55;;;;;;;6.70;3.90;;;;;;;15.99;34.49;101493.47;5004240;28;20447;-55
2022/04/20 11:41:20;;;;;;;8.07;4.20;;;;;;;16.03;37.38;101483.22;5005549;28;20038;-55
2022/04/20 11:43:49;;;;;;;5.50;3.90;;;;;;;16.05;35.75;101492.75;5005349;28;20033;-57
2022/04/20 11:46:16;;;;;;;6.75;3.95;;;;;;;16.14;34.46;101480.09;5003520;28;20030;-52
2022/04/20 11:48:53;;;;;;;6.18;3.75;;;;;;;16.18;35.08;101476.03;5005216;28;21093;-56
2022/04/20 11:51:24;;;;;;;5.75;4.05;;;;;;;16.30;34.59;101478.25;5003353;28;20120;-56
2022/04/20 11:53:50;;;;;;;7.50;4.07;;;;;;;16.33;35.39;101483.25;5006317;28;20026;-58
2022/04/20 11:56:16;;;;;;;7.22;4.32;;;;;;;16.33;35.66;101481.41;5013512;28;20439;-58
2022/04/20 11:58:48;;;;;;;8.05;4.35;;;;;;;16.36;35.35;101473.00;5009719;28;20029;-57